Omaha, NE (68101)

7:27 AM CDT on August 01, 2015 (GMT -0500)
Midtown Crossing area | | Change Station
CLOSE
Current Station
Personal Weather Station
Location: Omaha, NE
Elevation: 1161 ft
Nearby Weather Stations

Elev 1161 ft 41.26 °N, 95.96 °W | Updated 5 seconds ago

Mostly Cloudy
Mostly Cloudy
71.8 °F
Feels Like 71.8 °F
N
0.0
Wind Variable Wind from ESE
Gusts 0.0 mph

Today
High -- | Low -- °F
--% Chance of Precip.
Yesterday
High -- | Low -- °F
Precip. -- in
6:18 AM 8:40 PM
Full, 98% visible
Pressure 30.01 in
Visibility 10.0 miles
Clouds Few 8000 ft
Few 12000 ft
Mostly Cloudy 25000 ft
Dew Point 70 °F
Humidity 94%
Rainfall 0.00 in
Snow Depth Not available.
UV 0.0 out of 12
Pollen 6.80 out of 12
Air Quality Not available.
Flu Activity Not available.
METAR KOMA 011152Z 00000KT 10SM FEW080 FEW120 BKN250 20/19 A3004 RMK AO2 SLP163 CB DSNT W T02000189 10233 20200 55002

More Conditions Fewer Conditions

Pressure 30.01 in
Visibility 10.0 miles
Clouds Few 8000 ft
Few 12000 ft
Mostly Cloudy 25000 ft
Dew Point 70 °F
Humidity 94%
Rainfall 0.00 in
Snow Depth Not available.
UV 0.0 out of 12
Pollen 6.80 out of 12
Air Quality Not available.
Flu Activity Not available.
METAR KOMA 011152Z 00000KT 10SM FEW080 FEW120 BKN250 20/19 A3004 RMK AO2 SLP163 CB DSNT W T02000189 10233 20200 55002

More Conditions Fewer Conditions

10-Day Weather Forecast

×

Almanac

Astronomy

Aug. 01, 2015 Rise Set
Actual Time
Civil Twilight
Nautical Twilight
Astronomical Twilight
Moon
Length of Visible Light
Length of Day
Tomorrow will be .
, % of the Moon is Illuminated

Today's Extremes

State Highs State Lows

Community

WunderPhotos

Upload Photos

1,842,925 photos uploaded!

WunderBlogs® & News

Nearby

Air Quality

  Air Quality AQ Index Pollutant
Not available.

Snow Depth

Station Depth Elevation

Earthquake Activity

City Distance Mag. Time & Date
Minimum magnitude displayed is 2.5.

Coastal Water Temperatures

Place Temperature

Stations

Nearby Weather Stations

Station Location Temp. Windchill Dew Point Humidity Wind Precip. Elev Updated Type